sensor_id;sensor_type;location;lat;lon;timestamp;P1;durP1;ratioP1;P2;durP2;ratioP2
42770;SDS011;28426;42.872;25.314;2022-12-18T00:00:53;7.18;;;3.70;;
42770;SDS011;28426;42.872;25.314;2022-12-18T00:03:24;5.82;;;3.00;;
42770;SDS011;28426;42.872;25.314;2022-12-18T00:05:55;5.63;;;3.03;;
42770;SDS011;28426;42.872;25.314;2022-12-18T00:08:25;6.78;;;3.40;;
42770;SDS011;28426;42.872;25.314;2022-12-18T00:11:03;5.15;;;3.15;;
42770;SDS011;28426;42.872;25.314;2022-12-18T00:13:33;6.18;;;3.58;;
42770;SDS011;28426;42.872;25.314;2022-12-18T00:16:08;4.60;;;2.65;;
42770;SDS011;28426;42.872;25.314;2022-12-18T00:18:41;6.28;;;3.20;;
42770;SDS011;28426;42.872;25.314;2022-12-18T00:21:12;5.03;;;2.90;;
42770;SDS011;28426;42.872;25.314;2022-12-18T00:23:44;7.10;;;2.95;;
42770;SDS011;28426;42.872;25.314;2022-12-18T00:26:17;5.63;;;3.13;;
42770;SDS011;28426;42.872;25.314;2022-12-18T00:28:52;7.47;;;3.22;;
42770;SDS011;28426;42.872;25.314;2022-12-18T00:31:26;6.13;;;3.38;;
42770;SDS011;28426;42.872;25.314;2022-12-18T00:33:58;7.25;;;3.35;;
42770;SDS011;28426;42.872;25.314;2022-12-18T00:36:29;5.28;;;3.05;;
42770;SDS011;28426;42.872;25.314;2022-12-18T00:39:03;4.70;;;2.83;;
42770;SDS011;28426;42.872;25.314;2022-12-18T00:41:35;9.43;;;3.33;;
42770;SDS011;28426;42.872;25.314;2022-12-18T00:44:18;5.30;;;3.08;;
42770;SDS011;28426;42.872;25.314;2022-12-18T00:46:52;7.72;;;3.85;;
42770;SDS011;28426;42.872;25.314;2022-12-18T00:49:23;5.65;;;3.17;;
42770;SDS011;28426;42.872;25.314;2022-12-18T00:51:54;5.65;;;3.30;;
42770;SDS011;28426;42.872;25.314;2022-12-18T00:54:25;5.07;;;3.20;;
42770;SDS011;28426;42.872;25.314;2022-12-18T00:56:56;5.50;;;3.42;;
42770;SDS011;28426;42.872;25.314;2022-12-18T00:59:26;5.55;;;3.42;;
42770;SDS011;28426;42.872;25.314;2022-12-18T01:02:00;10.93;;;3.45;;
42770;SDS011;28426;42.872;25.314;2022-12-18T01:04:30;10.32;;;3.30;;
42770;SDS011;28426;42.872;25.314;2022-12-18T01:07:01;6.57;;;3.65;;
42770;SDS011;28426;42.872;25.314;2022-12-18T01:09:33;8.95;;;4.05;;
42770;SDS011;28426;42.872;25.314;2022-12-18T01:12:05;6.55;;;4.05;;
42770;SDS011;28426;42.872;25.314;2022-12-18T01:14:36;6.28;;;4.05;;
42770;SDS011;28426;42.872;25.314;2022-12-18T01:17:13;7.10;;;4.28;;
42770;SDS011;28426;42.872;25.314;2022-12-18T01:19:44;7.50;;;4.35;;
42770;SDS011;28426;42.872;25.314;2022-12-18T01:22:15;14.65;;;4.70;;
42770;SDS011;28426;42.872;25.314;2022-12-18T01:24:45;8.48;;;4.47;;
42770;SDS011;28426;42.872;25.314;2022-12-18T01:27:16;7.25;;;5.03;;
42770;SDS011;28426;42.872;25.314;2022-12-18T01:29:47;10.45;;;4.97;;
42770;SDS011;28426;42.872;25.314;2022-12-18T01:32:21;11.77;;;5.28;;
42770;SDS011;28426;42.872;25.314;2022-12-18T01:34:52;11.25;;;4.85;;
42770;SDS011;28426;42.872;25.314;2022-12-18T01:37:22;8.95;;;4.82;;
42770;SDS011;28426;42.872;25.314;2022-12-18T01:39:53;10.60;;;5.40;;
42770;SDS011;28426;42.872;25.314;2022-12-18T01:42:24;8.50;;;5.50;;
42770;SDS011;28426;42.872;25.314;2022-12-18T01:44:57;10.73;;;5.82;;
42770;SDS011;28426;42.872;25.314;2022-12-18T01:47:36;6.88;;;4.32;;
42770;SDS011;28426;42.872;25.314;2022-12-18T01:50:13;10.73;;;4.10;;
42770;SDS011;28426;42.872;25.314;2022-12-18T01:52:46;7.60;;;4.35;;
42770;SDS011;28426;42.872;25.314;2022-12-18T01:55:20;7.65;;;4.40;;
42770;SDS011;28426;42.872;25.314;2022-12-18T01:57:54;18.67;;;5.10;;
42770;SDS011;28426;42.872;25.314;2022-12-18T02:00:28;8.50;;;4.32;;
42770;SDS011;28426;42.872;25.314;2022-12-18T02:03:02;6.60;;;4.40;;
42770;SDS011;28426;42.872;25.314;2022-12-18T02:05:35;9.77;;;4.28;;
42770;SDS011;28426;42.872;25.314;2022-12-18T02:08:16;14.18;;;4.90;;
42770;SDS011;28426;42.872;25.314;2022-12-18T02:13:28;9.57;;;4.83;;
42770;SDS011;28426;42.872;25.314;2022-12-18T02:16:28;7.38;;;4.13;;
42770;SDS011;28426;42.872;25.314;2022-12-18T02:19:08;8.25;;;4.40;;
42770;SDS011;28426;42.872;25.314;2022-12-18T02:21:58;6.97;;;4.07;;
42770;SDS011;28426;42.872;25.314;2022-12-18T02:24:38;6.93;;;4.60;;
42770;SDS011;28426;42.872;25.314;2022-12-18T02:27:17;11.52;;;4.70;;
42770;SDS011;28426;42.872;25.314;2022-12-18T02:29:50;7.28;;;4.20;;
42770;SDS011;28426;42.872;25.314;2022-12-18T02:32:30;9.75;;;4.80;;
42770;SDS011;28426;42.872;25.314;2022-12-18T02:35:04;9.82;;;4.63;;
42770;SDS011;28426;42.872;25.314;2022-12-18T02:37:38;9.77;;;5.10;;
42770;SDS011;28426;42.872;25.314;2022-12-18T02:40:12;19.73;;;5.85;;
42770;SDS011;28426;42.872;25.314;2022-12-18T02:42:48;10.88;;;5.53;;
42770;SDS011;28426;42.872;25.314;2022-12-18T02:45:19;10.52;;;5.75;;
42770;SDS011;28426;42.872;25.314;2022-12-18T02:47:51;11.98;;;6.30;;
42770;SDS011;28426;42.872;25.314;2022-12-18T02:50:25;13.52;;;5.80;;
42770;SDS011;28426;42.872;25.314;2022-12-18T02:53:04;9.75;;;5.90;;
42770;SDS011;28426;42.872;25.314;2022-12-18T02:55:47;10.93;;;6.15;;
42770;SDS011;28426;42.872;25.314;2022-12-18T02:58:32;10.10;;;5.75;;
42770;SDS011;28426;42.872;25.314;2022-12-18T03:01:19;10.98;;;6.28;;
42770;SDS011;28426;42.872;25.314;2022-12-18T03:03:55;8.73;;;5.70;;
42770;SDS011;28426;42.872;25.314;2022-12-18T03:06:28;8.68;;;5.95;;
42770;SDS011;28426;42.872;25.314;2022-12-18T03:09:03;16.55;;;7.10;;
42770;SDS011;28426;42.872;25.314;2022-12-18T03:11:39;11.82;;;5.68;;
42770;SDS011;28426;42.872;25.314;2022-12-18T03:14:30;12.30;;;6.70;;
42770;SDS011;28426;42.872;25.314;2022-12-18T03:17:03;13.38;;;6.85;;
42770;SDS011;28426;42.872;25.314;2022-12-18T03:19:35;10.77;;;6.45;;
42770;SDS011;28426;42.872;25.314;2022-12-18T03:22:09;11.30;;;6.93;;
42770;SDS011;28426;42.872;25.314;2022-12-18T03:27:18;11.93;;;6.57;;
42770;SDS011;28426;42.872;25.314;2022-12-18T03:29:56;10.98;;;6.80;;
42770;SDS011;28426;42.872;25.314;2022-12-18T03:32:38;13.73;;;6.63;;
42770;SDS011;28426;42.872;25.314;2022-12-18T03:35:13;10.90;;;6.97;;
42770;SDS011;28426;42.872;25.314;2022-12-18T03:37:48;10.98;;;7.18;;
42770;SDS011;28426;42.872;25.314;2022-12-18T03:40:20;11.00;;;6.93;;
42770;SDS011;28426;42.872;25.314;2022-12-18T03:42:58;11.85;;;7.15;;
42770;SDS011;28426;42.872;25.314;2022-12-18T03:45:36;11.05;;;6.07;;
42770;SDS011;28426;42.872;25.314;2022-12-18T03:48:14;10.85;;;6.60;;
42770;SDS011;28426;42.872;25.314;2022-12-18T03:50:51;12.98;;;6.45;;
42770;SDS011;28426;42.872;25.314;2022-12-18T03:53:28;11.82;;;6.63;;
42770;SDS011;28426;42.872;25.314;2022-12-18T03:56:07;15.82;;;7.10;;
42770;SDS011;28426;42.872;25.314;2022-12-18T03:58:40;13.35;;;7.32;;
42770;SDS011;28426;42.872;25.314;2022-12-18T04:01:20;13.65;;;7.20;;
42770;SDS011;28426;42.872;25.314;2022-12-18T04:03:56;9.50;;;6.30;;
42770;SDS011;28426;42.872;25.314;2022-12-18T04:06:33;13.93;;;7.50;;
42770;SDS011;28426;42.872;25.314;2022-12-18T04:09:05;15.85;;;7.68;;
42770;SDS011;28426;42.872;25.314;2022-12-18T04:11:39;10.02;;;6.53;;
42770;SDS011;28426;42.872;25.314;2022-12-18T04:14:12;11.02;;;6.80;;
42770;SDS011;28426;42.872;25.314;2022-12-18T04:16:50;16.45;;;8.50;;
42770;SDS011;28426;42.872;25.314;2022-12-18T04:19:28;14.63;;;7.63;;
42770;SDS011;28426;42.872;25.314;2022-12-18T04:22:00;13.68;;;8.02;;
42770;SDS011;28426;42.872;25.314;2022-12-18T04:24:38;13.30;;;8.45;;
42770;SDS011;28426;42.872;25.314;2022-12-18T04:27:16;16.00;;;9.05;;
42770;SDS011;28426;42.872;25.314;2022-12-18T04:29:49;16.25;;;8.77;;
42770;SDS011;28426;42.872;25.314;2022-12-18T04:32:22;15.88;;;8.93;;
42770;SDS011;28426;42.872;25.314;2022-12-18T04:34:53;14.50;;;9.18;;
42770;SDS011;28426;42.872;25.314;2022-12-18T04:37:24;13.90;;;9.07;;
42770;SDS011;28426;42.872;25.314;2022-12-18T04:39:55;14.73;;;9.00;;
42770;SDS011;28426;42.872;25.314;2022-12-18T04:42:33;15.13;;;9.20;;
42770;SDS011;28426;42.872;25.314;2022-12-18T04:45:04;13.50;;;8.73;;
42770;SDS011;28426;42.872;25.314;2022-12-18T04:47:38;13.93;;;8.60;;
42770;SDS011;28426;42.872;25.314;2022-12-18T04:50:08;15.32;;;9.30;;
42770;SDS011;28426;42.872;25.314;2022-12-18T04:52:39;17.73;;;9.30;;
42770;SDS011;28426;42.872;25.314;2022-12-18T04:55:12;17.02;;;9.55;;
42770;SDS011;28426;42.872;25.314;2022-12-18T04:57:43;14.48;;;9.70;;
42770;SDS011;28426;42.872;25.314;2022-12-18T05:00:14;14.48;;;9.10;;
42770;SDS011;28426;42.872;25.314;2022-12-18T05:02:47;17.23;;;10.20;;
42770;SDS011;28426;42.872;25.314;2022-12-18T05:05:18;17.52;;;10.32;;
42770;SDS011;28426;42.872;25.314;2022-12-18T05:07:49;17.58;;;10.48;;
42770;SDS011;28426;42.872;25.314;2022-12-18T05:10:20;18.27;;;10.90;;
42770;SDS011;28426;42.872;25.314;2022-12-18T05:12:50;16.45;;;10.75;;
42770;SDS011;28426;42.872;25.314;2022-12-18T05:15:30;21.83;;;11.27;;
42770;SDS011;28426;42.872;25.314;2022-12-18T05:18:04;19.40;;;10.57;;
42770;SDS011;28426;42.872;25.314;2022-12-18T05:20:35;20.02;;;12.18;;
42770;SDS011;28426;42.872;25.314;2022-12-18T05:23:05;18.67;;;11.75;;
42770;SDS011;28426;42.872;25.314;2022-12-18T05:25:36;20.52;;;11.15;;
42770;SDS011;28426;42.872;25.314;2022-12-18T05:28:07;17.83;;;10.95;;
42770;SDS011;28426;42.872;25.314;2022-12-18T05:30:38;20.23;;;11.57;;
42770;SDS011;28426;42.872;25.314;2022-12-18T05:33:11;19.92;;;12.05;;
42770;SDS011;28426;42.872;25.314;2022-12-18T05:35:41;20.23;;;11.98;;
42770;SDS011;28426;42.872;25.314;2022-12-18T05:38:12;23.60;;;11.85;;
42770;SDS011;28426;42.872;25.314;2022-12-18T05:40:42;18.73;;;11.43;;
42770;SDS011;28426;42.872;25.314;2022-12-18T05:43:13;17.70;;;11.48;;
42770;SDS011;28426;42.872;25.314;2022-12-18T05:45:47;18.33;;;11.43;;
42770;SDS011;28426;42.872;25.314;2022-12-18T05:48:21;18.58;;;11.93;;
42770;SDS011;28426;42.872;25.314;2022-12-18T05:50:52;17.67;;;11.27;;
42770;SDS011;28426;42.872;25.314;2022-12-18T05:53:22;19.85;;;12.15;;
42770;SDS011;28426;42.872;25.314;2022-12-18T05:55:53;19.75;;;12.02;;
42770;SDS011;28426;42.872;25.314;2022-12-18T05:58:23;18.52;;;11.75;;
42770;SDS011;28426;42.872;25.314;2022-12-18T06:00:54;17.42;;;11.45;;
42770;SDS011;28426;42.872;25.314;2022-12-18T06:03:27;16.83;;;10.73;;
42770;SDS011;28426;42.872;25.314;2022-12-18T06:06:00;18.83;;;11.23;;
42770;SDS011;28426;42.872;25.314;2022-12-18T06:08:30;19.13;;;11.05;;
42770;SDS011;28426;42.872;25.314;2022-12-18T06:11:01;18.08;;;11.02;;
42770;SDS011;28426;42.872;25.314;2022-12-18T06:13:31;18.48;;;10.95;;
42770;SDS011;28426;42.872;25.314;2022-12-18T06:16:03;15.85;;;9.85;;
42770;SDS011;28426;42.872;25.314;2022-12-18T06:18:36;19.45;;;10.75;;
42770;SDS011;28426;42.872;25.314;2022-12-18T06:21:07;17.02;;;10.88;;
42770;SDS011;28426;42.872;25.314;2022-12-18T06:23:37;18.17;;;11.15;;
42770;SDS011;28426;42.872;25.314;2022-12-18T06:26:10;20.40;;;10.75;;
42770;SDS011;28426;42.872;25.314;2022-12-18T06:28:42;17.70;;;10.82;;
42770;SDS011;28426;42.872;25.314;2022-12-18T06:31:12;17.02;;;10.70;;
42770;SDS011;28426;42.872;25.314;2022-12-18T06:33:47;18.85;;;11.80;;
42770;SDS011;28426;42.872;25.314;2022-12-18T06:36:17;19.45;;;11.07;;
42770;SDS011;28426;42.872;25.314;2022-12-18T06:38:48;17.17;;;10.60;;
42770;SDS011;28426;42.872;25.314;2022-12-18T06:41:19;18.52;;;11.35;;
42770;SDS011;28426;42.872;25.314;2022-12-18T06:43:51;19.23;;;11.40;;
42770;SDS011;28426;42.872;25.314;2022-12-18T06:46:25;18.77;;;11.68;;
42770;SDS011;28426;42.872;25.314;2022-12-18T06:48:59;22.45;;;11.40;;
42770;SDS011;28426;42.872;25.314;2022-12-18T06:51:29;21.50;;;11.68;;
42770;SDS011;28426;42.872;25.314;2022-12-18T06:54:00;16.23;;;9.85;;
42770;SDS011;28426;42.872;25.314;2022-12-18T06:56:31;17.35;;;10.23;;
42770;SDS011;28426;42.872;25.314;2022-12-18T06:59:01;17.92;;;10.43;;
42770;SDS011;28426;42.872;25.314;2022-12-18T07:01:32;19.40;;;11.25;;
42770;SDS011;28426;42.872;25.314;2022-12-18T07:04:07;17.55;;;11.02;;
42770;SDS011;28426;42.872;25.314;2022-12-18T07:06:37;17.55;;;10.43;;
42770;SDS011;28426;42.872;25.314;2022-12-18T07:09:08;16.40;;;9.93;;
42770;SDS011;28426;42.872;25.314;2022-12-18T07:11:38;15.85;;;9.85;;
42770;SDS011;28426;42.872;25.314;2022-12-18T07:14:09;15.63;;;9.80;;
42770;SDS011;28426;42.872;25.314;2022-12-18T07:16:40;19.17;;;11.45;;
42770;SDS011;28426;42.872;25.314;2022-12-18T07:19:13;18.45;;;12.05;;
42770;SDS011;28426;42.872;25.314;2022-12-18T07:21:44;17.83;;;10.60;;
42770;SDS011;28426;42.872;25.314;2022-12-18T07:24:14;19.95;;;11.63;;
42770;SDS011;28426;42.872;25.314;2022-12-18T07:26:47;18.45;;;11.80;;
42770;SDS011;28426;42.872;25.314;2022-12-18T07:29:18;23.92;;;12.10;;
42770;SDS011;28426;42.872;25.314;2022-12-18T07:31:48;21.55;;;12.50;;
42770;SDS011;28426;42.872;25.314;2022-12-18T07:34:21;19.17;;;11.43;;
42770;SDS011;28426;42.872;25.314;2022-12-18T07:36:52;23.42;;;12.25;;
42770;SDS011;28426;42.872;25.314;2022-12-18T07:39:22;22.40;;;12.48;;
42770;SDS011;28426;42.872;25.314;2022-12-18T07:41:53;24.70;;;12.13;;
42770;SDS011;28426;42.872;25.314;2022-12-18T07:44:39;21.58;;;10.98;;
42770;SDS011;28426;42.872;25.314;2022-12-18T07:47:10;19.85;;;11.60;;
42770;SDS011;28426;42.872;25.314;2022-12-18T07:49:43;20.05;;;11.50;;
42770;SDS011;28426;42.872;25.314;2022-12-18T07:52:13;18.73;;;11.73;;
42770;SDS011;28426;42.872;25.314;2022-12-18T07:54:51;32.38;;;13.00;;
42770;SDS011;28426;42.872;25.314;2022-12-18T07:57:22;24.33;;;12.85;;
42770;SDS011;28426;42.872;25.314;2022-12-18T08:00:13;21.38;;;12.60;;
42770;SDS011;28426;42.872;25.314;2022-12-18T08:02:45;20.27;;;10.95;;
42770;SDS011;28426;42.872;25.314;2022-12-18T08:05:18;18.55;;;11.82;;
42770;SDS011;28426;42.872;25.314;2022-12-18T08:07:49;19.20;;;10.73;;
42770;SDS011;28426;42.872;25.314;2022-12-18T08:10:20;19.90;;;11.57;;
42770;SDS011;28426;42.872;25.314;2022-12-18T08:12:51;27.40;;;12.93;;
42770;SDS011;28426;42.872;25.314;2022-12-18T08:15:30;18.83;;;11.52;;
42770;SDS011;28426;42.872;25.314;2022-12-18T08:18:00;18.20;;;9.82;;
42770;SDS011;28426;42.872;25.314;2022-12-18T08:20:39;28.55;;;11.02;;
42770;SDS011;28426;42.872;25.314;2022-12-18T08:23:13;16.45;;;9.48;;
42770;SDS011;28426;42.872;25.314;2022-12-18T08:25:43;19.48;;;9.95;;
42770;SDS011;28426;42.872;25.314;2022-12-18T08:28:14;27.15;;;10.55;;
42770;SDS011;28426;42.872;25.314;2022-12-18T08:30:45;31.17;;;10.20;;
42770;SDS011;28426;42.872;25.314;2022-12-18T08:33:15;22.13;;;9.45;;
42770;SDS011;28426;42.872;25.314;2022-12-18T08:35:48;20.00;;;9.40;;
42770;SDS011;28426;42.872;25.314;2022-12-18T08:38:19;22.38;;;9.93;;
42770;SDS011;28426;42.872;25.314;2022-12-18T08:40:53;40.10;;;12.93;;
42770;SDS011;28426;42.872;25.314;2022-12-18T08:43:28;18.60;;;9.45;;
42770;SDS011;28426;42.872;25.314;2022-12-18T08:46:11;23.58;;;9.57;;
42770;SDS011;28426;42.872;25.314;2022-12-18T08:48:42;32.42;;;11.43;;
42770;SDS011;28426;42.872;25.314;2022-12-18T08:51:16;16.85;;;8.50;;
42770;SDS011;28426;42.872;25.314;2022-12-18T08:53:47;21.45;;;9.00;;
42770;SDS011;28426;42.872;25.314;2022-12-18T08:56:17;15.18;;;9.40;;
42770;SDS011;28426;42.872;25.314;2022-12-18T08:58:50;19.95;;;10.10;;
42770;SDS011;28426;42.872;25.314;2022-12-18T09:01:21;19.15;;;8.55;;
42770;SDS011;28426;42.872;25.314;2022-12-18T09:03:53;16.17;;;8.23;;
42770;SDS011;28426;42.872;25.314;2022-12-18T09:06:26;19.83;;;7.30;;
42770;SDS011;28426;42.872;25.314;2022-12-18T09:08:57;15.02;;;7.10;;
42770;SDS011;28426;42.872;25.314;2022-12-18T09:11:28;13.55;;;6.75;;
42770;SDS011;28426;42.872;25.314;2022-12-18T09:14:00;13.00;;;7.25;;
42770;SDS011;28426;42.872;25.314;2022-12-18T09:16:32;15.57;;;7.60;;
42770;SDS011;28426;42.872;25.314;2022-12-18T09:19:04;12.32;;;6.57;;
42770;SDS011;28426;42.872;25.314;2022-12-18T09:21:37;16.08;;;7.88;;
42770;SDS011;28426;42.872;25.314;2022-12-18T09:24:14;11.20;;;6.45;;
42770;SDS011;28426;42.872;25.314;2022-12-18T09:26:45;13.52;;;6.88;;
42770;SDS011;28426;42.872;25.314;2022-12-18T09:29:23;11.18;;;6.85;;
42770;SDS011;28426;42.872;25.314;2022-12-18T09:31:54;18.63;;;7.00;;
42770;SDS011;28426;42.872;25.314;2022-12-18T09:34:24;11.73;;;6.53;;
42770;SDS011;28426;42.872;25.314;2022-12-18T09:36:58;16.60;;;7.97;;
42770;SDS011;28426;42.872;25.314;2022-12-18T09:39:29;12.55;;;6.72;;
42770;SDS011;28426;42.872;25.314;2022-12-18T09:41:59;15.18;;;7.25;;
42770;SDS011;28426;42.872;25.314;2022-12-18T09:44:31;13.85;;;7.65;;
42770;SDS011;28426;42.872;25.314;2022-12-18T09:47:12;13.40;;;7.15;;
42770;SDS011;28426;42.872;25.314;2022-12-18T09:49:47;14.95;;;7.93;;
42770;SDS011;28426;42.872;25.314;2022-12-18T09:54:59;22.45;;;9.00;;
42770;SDS011;28426;42.872;25.314;2022-12-18T09:57:32;15.80;;;7.32;;
42770;SDS011;28426;42.872;25.314;2022-12-18T10:00:11;17.83;;;8.37;;
42770;SDS011;28426;42.872;25.314;2022-12-18T10:02:47;15.50;;;7.85;;
42770;SDS011;28426;42.872;25.314;2022-12-18T10:05:20;21.40;;;9.20;;
42770;SDS011;28426;42.872;25.314;2022-12-18T10:08:02;17.83;;;8.38;;
42770;SDS011;28426;42.872;25.314;2022-12-18T10:10:40;31.25;;;15.02;;
42770;SDS011;28426;42.872;25.314;2022-12-18T10:13:19;16.65;;;10.32;;
42770;SDS011;28426;42.872;25.314;2022-12-18T10:15:59;20.88;;;9.95;;
42770;SDS011;28426;42.872;25.314;2022-12-18T10:18:48;12.65;;;7.20;;
42770;SDS011;28426;42.872;25.314;2022-12-18T10:21:30;12.98;;;7.30;;
42770;SDS011;28426;42.872;25.314;2022-12-18T10:26:41;14.48;;;8.23;;
42770;SDS011;28426;42.872;25.314;2022-12-18T10:29:12;12.82;;;7.13;;
42770;SDS011;28426;42.872;25.314;2022-12-18T10:31:44;13.80;;;7.82;;
42770;SDS011;28426;42.872;25.314;2022-12-18T10:34:15;14.68;;;8.00;;
42770;SDS011;28426;42.872;25.314;2022-12-18T10:36:46;14.13;;;6.90;;
42770;SDS011;28426;42.872;25.314;2022-12-18T10:39:21;15.15;;;7.22;;
42770;SDS011;28426;42.872;25.314;2022-12-18T10:41:56;11.82;;;6.43;;
42770;SDS011;28426;42.872;25.314;2022-12-18T10:44:40;12.50;;;5.95;;
42770;SDS011;28426;42.872;25.314;2022-12-18T10:47:11;10.18;;;5.65;;
42770;SDS011;28426;42.872;25.314;2022-12-18T10:49:47;12.07;;;5.10;;
42770;SDS011;28426;42.872;25.314;2022-12-18T10:52:20;13.77;;;6.35;;
42770;SDS011;28426;42.872;25.314;2022-12-18T10:54:55;9.52;;;5.07;;
42770;SDS011;28426;42.872;25.314;2022-12-18T10:57:33;11.75;;;5.53;;
42770;SDS011;28426;42.872;25.314;2022-12-18T11:02:54;13.95;;;4.93;;
42770;SDS011;28426;42.872;25.314;2022-12-18T11:05:27;11.68;;;6.07;;
42770;SDS011;28426;42.872;25.314;2022-12-18T11:08:00;10.05;;;4.97;;
42770;SDS011;28426;42.872;25.314;2022-12-18T11:10:35;12.73;;;5.35;;
42770;SDS011;28426;42.872;25.314;2022-12-18T11:13:11;13.05;;;4.78;;
42770;SDS011;28426;42.872;25.314;2022-12-18T11:15:46;19.80;;;6.10;;
42770;SDS011;28426;42.872;25.314;2022-12-18T11:18:19;8.18;;;4.60;;
42770;SDS011;28426;42.872;25.314;2022-12-18T11:20:55;14.90;;;5.35;;
42770;SDS011;28426;42.872;25.314;2022-12-18T11:23:27;9.65;;;4.70;;
42770;SDS011;28426;42.872;25.314;2022-12-18T11:26:01;12.07;;;6.47;;
42770;SDS011;28426;42.872;25.314;2022-12-18T11:28:35;9.70;;;5.75;;
42770;SDS011;28426;42.872;25.314;2022-12-18T11:33:59;12.70;;;5.78;;
42770;SDS011;28426;42.872;25.314;2022-12-18T11:36:53;8.07;;;4.80;;
42770;SDS011;28426;42.872;25.314;2022-12-18T11:39:26;9.82;;;5.18;;
42770;SDS011;28426;42.872;25.314;2022-12-18T11:42:08;19.70;;;6.40;;
42770;SDS011;28426;42.872;25.314;2022-12-18T11:44:44;10.73;;;5.53;;
42770;SDS011;28426;42.872;25.314;2022-12-18T11:47:20;12.93;;;6.05;;
42770;SDS011;28426;42.872;25.314;2022-12-18T11:49:59;8.60;;;5.13;;
42770;SDS011;28426;42.872;25.314;2022-12-18T11:52:33;10.57;;;5.90;;
42770;SDS011;28426;42.872;25.314;2022-12-18T11:55:11;15.43;;;7.43;;
42770;SDS011;28426;42.872;25.314;2022-12-18T11:57:48;9.98;;;5.93;;
42770;SDS011;28426;42.872;25.314;2022-12-18T12:00:26;11.32;;;5.97;;
42770;SDS011;28426;42.872;25.314;2022-12-18T12:03:05;13.52;;;6.63;;
42770;SDS011;28426;42.872;25.314;2022-12-18T12:05:55;9.65;;;5.30;;
42770;SDS011;28426;42.872;25.314;2022-12-18T12:08:34;11.65;;;5.07;;
42770;SDS011;28426;42.872;25.314;2022-12-18T12:11:16;15.23;;;6.50;;
42770;SDS011;28426;42.872;25.314;2022-12-18T12:14:01;9.68;;;4.80;;
42770;SDS011;28426;42.872;25.314;2022-12-18T12:16:44;8.75;;;5.35;;
42770;SDS011;28426;42.872;25.314;2022-12-18T12:19:23;10.57;;;5.88;;
42770;SDS011;28426;42.872;25.314;2022-12-18T12:22:05;8.77;;;5.20;;
42770;SDS011;28426;42.872;25.314;2022-12-18T12:24:46;8.43;;;5.05;;
42770;SDS011;28426;42.872;25.314;2022-12-18T12:27:26;8.98;;;5.20;;
42770;SDS011;28426;42.872;25.314;2022-12-18T12:30:07;8.45;;;4.90;;
42770;SDS011;28426;42.872;25.314;2022-12-18T12:32:52;22.70;;;7.80;;
42770;SDS011;28426;42.872;25.314;2022-12-18T12:35:42;15.02;;;6.28;;
42770;SDS011;28426;42.872;25.314;2022-12-18T12:38:22;11.93;;;6.07;;
42770;SDS011;28426;42.872;25.314;2022-12-18T12:40:58;9.50;;;5.95;;
42770;SDS011;28426;42.872;25.314;2022-12-18T12:43:35;12.32;;;5.93;;
42770;SDS011;28426;42.872;25.314;2022-12-18T12:46:18;14.55;;;6.10;;
42770;SDS011;28426;42.872;25.314;2022-12-18T12:48:52;14.27;;;7.25;;
42770;SDS011;28426;42.872;25.314;2022-12-18T12:51:25;12.73;;;6.13;;
42770;SDS011;28426;42.872;25.314;2022-12-18T12:53:58;12.00;;;6.10;;
42770;SDS011;28426;42.872;25.314;2022-12-18T12:56:36;15.48;;;8.25;;
42770;SDS011;28426;42.872;25.314;2022-12-18T12:59:11;12.43;;;7.28;;
42770;SDS011;28426;42.872;25.314;2022-12-18T13:01:52;12.27;;;6.78;;
42770;SDS011;28426;42.872;25.314;2022-12-18T13:04:30;12.23;;;6.82;;
42770;SDS011;28426;42.872;25.314;2022-12-18T13:07:10;12.57;;;6.43;;
42770;SDS011;28426;42.872;25.314;2022-12-18T13:12:53;22.23;;;9.75;;
42770;SDS011;28426;42.872;25.314;2022-12-18T13:15:25;11.23;;;6.72;;
42770;SDS011;28426;42.872;25.314;2022-12-18T13:18:12;19.67;;;9.73;;
42770;SDS011;28426;42.872;25.314;2022-12-18T13:20:45;14.60;;;7.40;;
42770;SDS011;28426;42.872;25.314;2022-12-18T13:23:26;15.52;;;9.32;;
42770;SDS011;28426;42.872;25.314;2022-12-18T13:26:29;17.50;;;9.27;;
42770;SDS011;28426;42.872;25.314;2022-12-18T13:29:03;17.45;;;8.52;;
42770;SDS011;28426;42.872;25.314;2022-12-18T13:34:31;19.85;;;8.85;;
42770;SDS011;28426;42.872;25.314;2022-12-18T13:43:23;17.35;;;9.48;;
42770;SDS011;28426;42.872;25.314;2022-12-18T13:48:55;14.20;;;6.73;;
42770;SDS011;28426;42.872;25.314;2022-12-18T13:51:33;30.42;;;12.63;;
42770;SDS011;28426;42.872;25.314;2022-12-18T13:54:06;30.75;;;14.45;;
42770;SDS011;28426;42.872;25.314;2022-12-18T13:56:48;20.83;;;12.13;;
42770;SDS011;28426;42.872;25.314;2022-12-18T13:59:19;24.38;;;11.07;;
42770;SDS011;28426;42.872;25.314;2022-12-18T14:01:52;22.92;;;10.43;;
42770;SDS011;28426;42.872;25.314;2022-12-18T14:04:26;15.15;;;8.07;;
42770;SDS011;28426;42.872;25.314;2022-12-18T14:07:01;13.52;;;7.50;;
42770;SDS011;28426;42.872;25.314;2022-12-18T14:09:37;15.98;;;7.18;;
42770;SDS011;28426;42.872;25.314;2022-12-18T14:12:14;15.80;;;7.70;;
42770;SDS011;28426;42.872;25.314;2022-12-18T14:14:59;15.00;;;7.97;;
42770;SDS011;28426;42.872;25.314;2022-12-18T14:17:30;21.67;;;7.68;;
42770;SDS011;28426;42.872;25.314;2022-12-18T14:20:02;24.67;;;8.50;;
42770;SDS011;28426;42.872;25.314;2022-12-18T14:22:36;17.95;;;5.88;;
42770;SDS011;28426;42.872;25.314;2022-12-18T14:25:17;13.88;;;6.57;;
42770;SDS011;28426;42.872;25.314;2022-12-18T14:27:50;12.45;;;6.38;;
42770;SDS011;28426;42.872;25.314;2022-12-18T14:30:26;12.77;;;6.18;;
42770;SDS011;28426;42.872;25.314;2022-12-18T14:33:03;15.35;;;6.57;;
42770;SDS011;28426;42.872;25.314;2022-12-18T14:35:36;12.05;;;5.32;;
42770;SDS011;28426;42.872;25.314;2022-12-18T14:38:19;9.18;;;5.30;;
42770;SDS011;28426;42.872;25.314;2022-12-18T14:40:52;13.68;;;5.85;;
42770;SDS011;28426;42.872;25.314;2022-12-18T14:43:27;11.80;;;4.90;;
42770;SDS011;28426;42.872;25.314;2022-12-18T14:45:59;13.98;;;7.72;;
42770;SDS011;28426;42.872;25.314;2022-12-18T14:48:35;18.50;;;10.88;;
42770;SDS011;28426;42.872;25.314;2022-12-18T14:51:14;12.27;;;8.05;;
42770;SDS011;28426;42.872;25.314;2022-12-18T14:53:53;13.38;;;7.95;;
42770;SDS011;28426;42.872;25.314;2022-12-18T14:56:25;18.98;;;9.43;;
42770;SDS011;28426;42.872;25.314;2022-12-18T14:58:58;19.95;;;10.30;;
42770;SDS011;28426;42.872;25.314;2022-12-18T15:01:31;17.60;;;9.77;;
42770;SDS011;28426;42.872;25.314;2022-12-18T15:04:05;27.88;;;11.00;;
42770;SDS011;28426;42.872;25.314;2022-12-18T15:07:05;23.60;;;9.93;;
42770;SDS011;28426;42.872;25.314;2022-12-18T15:09:42;12.52;;;5.97;;
42770;SDS011;28426;42.872;25.314;2022-12-18T15:12:22;9.23;;;4.97;;
42770;SDS011;28426;42.872;25.314;2022-12-18T15:14:58;18.00;;;9.43;;
42770;SDS011;28426;42.872;25.314;2022-12-18T15:17:30;17.23;;;7.47;;
42770;SDS011;28426;42.872;25.314;2022-12-18T15:20:02;12.98;;;6.00;;
42770;SDS011;28426;42.872;25.314;2022-12-18T15:22:39;15.15;;;5.50;;
42770;SDS011;28426;42.872;25.314;2022-12-18T15:25:24;16.13;;;5.38;;
42770;SDS011;28426;42.872;25.314;2022-12-18T15:28:03;11.35;;;5.57;;
42770;SDS011;28426;42.872;25.314;2022-12-18T15:30:57;10.77;;;5.60;;
42770;SDS011;28426;42.872;25.314;2022-12-18T15:33:33;14.00;;;6.63;;
42770;SDS011;28426;42.872;25.314;2022-12-18T15:36:08;11.30;;;6.38;;